createdAt,value
2022-10-06T00:00:20.104Z,1025.5
2022-10-06T00:05:20.105Z,1025.5
2022-10-06T00:10:20.110Z,1025.6
2022-10-06T00:15:20.102Z,1025.6
2022-10-06T00:20:20.106Z,1025.8
2022-10-06T00:25:20.114Z,1025.8
2022-10-06T00:30:20.105Z,1025.8
2022-10-06T00:35:20.104Z,1025.8
2022-10-06T00:40:20.100Z,1025.8
2022-10-06T00:45:20.105Z,1025.8
2022-10-06T00:50:20.112Z,1025.9
2022-10-06T00:55:20.117Z,1025.8
2022-10-06T01:00:20.102Z,1025.8
2022-10-06T01:05:20.099Z,1025.8
2022-10-06T01:10:20.103Z,1025.9
2022-10-06T01:15:20.103Z,1025.8
2022-10-06T01:20:20.097Z,1025.8
2022-10-06T01:25:20.110Z,1025.9
2022-10-06T01:30:20.102Z,1026
2022-10-06T01:35:20.108Z,1026
2022-10-06T01:40:20.097Z,1026
2022-10-06T01:45:20.111Z,1026.2
2022-10-06T01:50:20.103Z,1026.2
2022-10-06T01:55:20.106Z,1026.2
2022-10-06T02:00:20.100Z,1026.4
2022-10-06T02:05:20.100Z,1026.4
2022-10-06T02:10:20.098Z,1026.4
2022-10-06T02:15:20.115Z,1026.5
2022-10-06T02:20:20.110Z,1026.4
2022-10-06T02:25:20.113Z,1026.6
2022-10-06T02:30:20.109Z,1026.6
2022-10-06T02:35:20.116Z,1026.6
2022-10-06T02:40:20.108Z,1026.8
2022-10-06T02:45:20.102Z,1026.8
2022-10-06T02:50:20.107Z,1026.8
2022-10-06T02:55:20.114Z,1026.9
2022-10-06T03:00:20.104Z,1027.1
2022-10-06T03:05:20.107Z,1027.1
2022-10-06T03:10:20.106Z,1027.2
2022-10-06T03:15:20.102Z,1027.2
2022-10-06T03:20:20.113Z,1027.3
2022-10-06T03:25:20.109Z,1027.2
2022-10-06T03:30:20.110Z,1027.4
2022-10-06T03:35:20.104Z,1027.5
2022-10-06T03:40:20.108Z,1027.6
2022-10-06T03:45:20.108Z,1027.6
2022-10-06T03:50:20.098Z,1027.8
2022-10-06T03:55:20.115Z,1027.8
2022-10-06T04:00:20.127Z,1027.8
2022-10-06T04:05:20.122Z,1027.9
2022-10-06T04:10:20.094Z,1028
2022-10-06T04:15:20.108Z,1028.1
2022-10-06T04:20:20.101Z,1028.2
2022-10-06T04:25:20.114Z,1028.2
2022-10-06T04:30:20.102Z,1028.2
2022-10-06T04:35:20.108Z,1028.5
2022-10-06T04:40:20.104Z,1028.6
2022-10-06T04:45:20.108Z,1028.8
2022-10-06T04:50:20.103Z,1028.8
2022-10-06T04:55:20.122Z,1028.9
2022-10-06T05:00:20.105Z,1029.1
2022-10-06T05:05:20.112Z,1029.1
2022-10-06T05:10:20.098Z,1029.3
2022-10-06T05:15:20.111Z,1029.4
2022-10-06T05:20:20.102Z,1029.5
2022-10-06T05:25:20.101Z,1029.5
2022-10-06T05:30:20.100Z,1029.6
2022-10-06T05:35:20.103Z,1029.6
2022-10-06T05:40:20.117Z,1029.8
2022-10-06T05:45:20.101Z,1029.8
2022-10-06T05:50:20.762Z,1029.9
2022-10-06T05:55:20.100Z,1030
2022-10-06T06:00:20.109Z,1030.2
2022-10-06T06:05:20.111Z,1030.2
2022-10-06T06:10:20.107Z,1030.3
2022-10-06T06:15:20.113Z,1030.4
2022-10-06T06:20:20.091Z,1030.4
2022-10-06T06:25:20.105Z,1030.4
2022-10-06T06:30:20.127Z,1030.6
2022-10-06T06:35:20.404Z,1030.8
2022-10-06T06:40:20.106Z,1030.7
2022-10-06T06:45:20.105Z,1030.8
2022-10-06T06:50:20.095Z,1031
2022-10-06T06:55:20.105Z,1031.1
2022-10-06T07:00:20.098Z,1031.2
2022-10-06T07:05:20.107Z,1031.3
2022-10-06T07:10:20.095Z,1031.3
2022-10-06T07:15:20.110Z,1031.4
2022-10-06T07:20:20.099Z,1031.5
2022-10-06T07:25:24.490Z,1031.7
2022-10-06T07:30:20.103Z,1031.7
2022-10-06T07:35:20.103Z,1031.9
2022-10-06T07:40:20.097Z,1031.9
2022-10-06T07:45:20.105Z,1032
2022-10-06T07:50:20.112Z,1032.1
2022-10-06T07:55:20.103Z,1032.2
2022-10-06T08:00:20.202Z,1032.3
2022-10-06T08:05:20.106Z,1032.4
2022-10-06T08:10:20.100Z,1032.4
2022-10-06T08:15:20.118Z,1032.4
2022-10-06T08:20:20.104Z,1032.5
2022-10-06T08:25:20.100Z,1032.5
2022-10-06T08:30:20.102Z,1032.6
2022-10-06T08:35:20.104Z,1032.7
2022-10-06T08:40:20.173Z,1032.7
2022-10-06T08:45:20.117Z,1032.7
2022-10-06T08:50:20.149Z,1032.8
2022-10-06T08:55:20.100Z,1032.8
2022-10-06T09:00:22.094Z,1032.8
2022-10-06T09:05:20.111Z,1032.9
2022-10-06T09:10:20.110Z,1032.9
2022-10-06T09:15:20.103Z,1032.9
2022-10-06T09:20:20.099Z,1033
2022-10-06T09:25:20.305Z,1033
2022-10-06T09:30:20.103Z,1033
2022-10-06T09:35:20.103Z,1033.1
2022-10-06T09:40:20.118Z,1033.1
2022-10-06T09:45:20.105Z,1033.1
2022-10-06T09:50:20.118Z,1033.3
2022-10-06T09:55:20.119Z,1033.3
2022-10-06T10:00:20.100Z,1033.2
2022-10-06T10:05:20.113Z,1033.1
2022-10-06T10:10:20.107Z,1033.2
2022-10-06T10:15:20.108Z,1033.2
2022-10-06T10:20:20.111Z,1033.2
2022-10-06T10:25:20.108Z,1033.1
2022-10-06T10:30:20.099Z,1033.2
2022-10-06T10:35:20.120Z,1033.2
2022-10-06T10:40:20.100Z,1033.3
2022-10-06T10:45:20.098Z,1033.3
2022-10-06T10:50:20.113Z,1033.2
2022-10-06T10:55:20.107Z,1033.2
2022-10-06T11:00:20.116Z,1033.3
2022-10-06T11:05:20.114Z,1033.4
2022-10-06T11:10:20.106Z,1033.3
2022-10-06T11:15:20.109Z,1033.2
2022-10-06T11:20:20.104Z,1033.1
2022-10-06T11:25:20.107Z,1033.3
2022-10-06T11:30:20.115Z,1033.1
2022-10-06T11:35:20.112Z,1033.1
2022-10-06T11:40:20.108Z,1033.1
2022-10-06T11:45:20.109Z,1033
2022-10-06T11:50:20.105Z,1033
2022-10-06T11:55:20.112Z,1033
2022-10-06T12:00:20.099Z,1032.8
2022-10-06T12:10:20.100Z,1032.9
2022-10-06T12:20:20.113Z,1032.9
2022-10-06T12:25:20.103Z,1032.8
2022-10-06T12:30:20.105Z,1032.8
2022-10-06T12:35:20.107Z,1032.8
2022-10-06T12:40:20.113Z,1032.8
2022-10-06T12:45:20.110Z,1032.8
2022-10-06T12:50:20.101Z,1032.8
2022-10-06T12:55:20.105Z,1032.6
2022-10-06T13:00:20.129Z,1032.6
2022-10-06T13:05:20.117Z,1032.6
2022-10-06T13:10:20.095Z,1032.6
2022-10-06T13:15:20.233Z,1032.6
2022-10-06T13:20:20.101Z,1032.6
2022-10-06T13:25:20.104Z,1032.5
2022-10-06T13:30:20.100Z,1032.5
2022-10-06T13:35:20.104Z,1032.5
2022-10-06T13:40:21.631Z,1032.4
2022-10-06T13:45:20.103Z,1032.4
2022-10-06T13:50:20.327Z,1032.4
2022-10-06T13:55:20.114Z,1032.4
2022-10-06T14:00:20.100Z,1032.4
2022-10-06T14:05:20.114Z,1032.4
2022-10-06T14:10:20.121Z,1032.4
2022-10-06T14:15:20.123Z,1032.4
2022-10-06T14:20:20.101Z,1032.3
2022-10-06T14:25:20.116Z,1032.3
2022-10-06T14:30:20.103Z,1032.3
2022-10-06T14:35:20.111Z,1032.3
2022-10-06T14:40:20.100Z,1032.3
2022-10-06T14:45:20.101Z,1032.3
2022-10-06T14:50:20.100Z,1032.2
2022-10-06T14:55:20.108Z,1032.2
2022-10-06T15:00:20.100Z,1032.2
2022-10-06T15:05:20.107Z,1032.2
2022-10-06T15:10:20.100Z,1032.2
2022-10-06T15:15:20.110Z,1032.2
2022-10-06T15:20:20.101Z,1032.1
2022-10-06T15:25:20.107Z,1032.1
2022-10-06T15:30:20.103Z,1032.2
2022-10-06T15:35:20.100Z,1032.1
2022-10-06T15:40:20.096Z,1032.1
2022-10-06T15:45:20.100Z,1032.1
2022-10-06T15:50:20.102Z,1032
2022-10-06T15:55:20.111Z,1031.9
2022-10-06T16:00:20.099Z,1032
2022-10-06T16:05:20.099Z,1032
2022-10-06T16:10:20.104Z,1031.9
2022-10-06T16:15:20.105Z,1032
2022-10-06T16:20:20.117Z,1032
2022-10-06T16:25:20.101Z,1032.1
2022-10-06T16:30:20.110Z,1032
2022-10-06T16:35:20.108Z,1032.1
2022-10-06T16:40:20.117Z,1032
2022-10-06T16:45:20.100Z,1032.1
2022-10-06T16:50:20.107Z,1032.1
2022-10-06T16:55:20.106Z,1032.1
2022-10-06T17:00:20.103Z,1032.2
2022-10-06T17:05:20.103Z,1032.2
2022-10-06T17:10:21.285Z,1032.3
2022-10-06T17:15:20.117Z,1032.3
2022-10-06T17:20:20.111Z,1032.3
2022-10-06T17:25:20.110Z,1032.3
2022-10-06T17:30:20.098Z,1032.3
2022-10-06T17:35:20.114Z,1032.3
2022-10-06T17:40:20.114Z,1032.4
2022-10-06T17:45:21.336Z,1032.3
2022-10-06T17:50:20.112Z,1032.4
2022-10-06T17:55:20.115Z,1032.4
2022-10-06T18:00:20.106Z,1032.4
2022-10-06T18:05:20.108Z,1032.5
2022-10-06T18:10:20.108Z,1032.4
2022-10-06T18:15:20.118Z,1032.5
2022-10-06T18:20:20.103Z,1032.5
2022-10-06T18:25:23.235Z,1032.6
2022-10-06T18:30:20.097Z,1032.5
2022-10-06T18:40:20.100Z,1032.6
2022-10-06T18:45:20.108Z,1032.5
2022-10-06T18:50:20.101Z,1032.5
2022-10-06T18:55:20.099Z,1032.5
2022-10-06T19:00:20.100Z,1032.5
2022-10-06T19:05:20.099Z,1032.6
2022-10-06T19:10:20.108Z,1032.6
2022-10-06T19:15:21.207Z,1032.6
2022-10-06T19:20:20.105Z,1032.6
2022-10-06T19:25:20.104Z,1032.6
2022-10-06T19:30:20.093Z,1032.7
2022-10-06T19:35:20.107Z,1032.7
2022-10-06T19:40:20.116Z,1032.7
2022-10-06T19:45:20.108Z,1032.8
2022-10-06T19:50:20.097Z,1032.8
2022-10-06T19:55:20.113Z,1032.8
2022-10-06T20:00:20.097Z,1032.8
2022-10-06T20:05:20.110Z,1032.9
2022-10-06T20:10:20.099Z,1032.9
2022-10-06T20:15:20.111Z,1032.9
2022-10-06T20:20:20.098Z,1033
2022-10-06T20:25:20.109Z,1033
2022-10-06T20:30:20.095Z,1033
2022-10-06T20:35:20.116Z,1033
2022-10-06T20:40:20.099Z,1033
2022-10-06T20:45:20.101Z,1033.1
2022-10-06T20:50:20.106Z,1033.1
2022-10-06T20:55:20.100Z,1033.2
2022-10-06T21:05:20.158Z,1033.1
2022-10-06T21:10:20.146Z,1033
2022-10-06T21:15:20.152Z,1033.2
2022-10-06T21:20:20.149Z,1033.1
2022-10-06T21:25:20.152Z,1033.1
2022-10-06T21:30:20.157Z,1033
2022-10-06T21:35:20.161Z,1033
2022-10-06T21:40:20.150Z,1033
2022-10-06T21:45:24.206Z,1032.9
2022-10-06T21:50:20.155Z,1033
2022-10-06T21:55:20.162Z,1032.9
2022-10-06T22:00:20.145Z,1032.9
2022-10-06T22:05:20.161Z,1032.7
2022-10-06T22:10:20.156Z,1032.8
2022-10-06T22:15:20.149Z,1032.8
2022-10-06T22:20:20.148Z,1032.8
2022-10-06T22:25:20.150Z,1032.7
2022-10-06T22:30:20.146Z,1032.6
2022-10-06T22:35:20.151Z,1032.6
2022-10-06T22:40:20.144Z,1032.6
2022-10-06T22:45:20.154Z,1032.6
2022-10-06T22:50:20.145Z,1032.5
2022-10-06T22:55:20.153Z,1032.5
2022-10-06T23:00:20.144Z,1032.5
2022-10-06T23:05:20.158Z,1032.4
2022-10-06T23:10:20.151Z,1032.3
2022-10-06T23:15:20.150Z,1032.3
2022-10-06T23:20:20.148Z,1032.2
2022-10-06T23:25:22.619Z,1032.2
2022-10-06T23:30:20.141Z,1032.2
2022-10-06T23:35:20.151Z,1032.2
2022-10-06T23:40:20.145Z,1032.2
2022-10-06T23:45:20.152Z,1032.1
2022-10-06T23:50:20.145Z,1032.2
2022-10-06T23:55:20.143Z,1032.2
